Tiempo atmosférico en la estación meteorológica de Carrión De Los Condes, Palencia (830 m.)



Fecha
DESCASC
Temp. máxima en grados centígrados (hora)
DESCASC
Temp. mínima en grados centígrados (hora)
DESCASC
Temp. media en grados centígrados
DESCASC
Racha de viento máxima en m/sg (hora)
DESCASC
Velocidad máxima media en intervalos de 10 minutos(hora)
DESCASC
Precipitaciones diarias en mm
DESCASC
Precipitaciones de 00:00 a 06:00 en mm
DESCASC
Precipitaciones de 06:00 a 12:00 en mm
DESCASC
Precipitaciones de 12:00 a 18:00 en mm
DESCASC
Precipitaciones de 18:00 a 24:00 en mm
DESCASC
20-09-2018 29.3 (16:10) 11.1 (08:00) 20.2 10.28 (16:10) 3.89 (17:30) 0 0 0 0 0
19-09-2018 29 (16:20) 13.1 (08:10) 21.1 6.11 (16:30) 2.22 (16:10) 0 0 0 0 0
18-09-2018 28.6 (15:30) 13.6 (08:10) 21.1 8.89 (14:10) 2.78 (00:30) 0 0 0 0 0
17-09-2018 29.8 (17:10) 11.3 (08:00) 20.5 7.5 (16:40) 2.5 (14:50) 0 0 0 0 0
16-09-2018 29.7 (15:40) 12.6 (00:00) 21.2 6.67 (14:00) 2.78 (14:10) 0 0 0 0 0
15-09-2018 29.1 (15:50) 12.2 (00:00) 20.7 6.94 (04:30) 3.33 (05:30) 0 0 0 0 0
14-09-2018 29.2 (17:30) 11 (00:00) 20.1 9.44 (20:30) 3.89 (21:30) 0 0 0 0 0
13-09-2018 28 (17:00) 12.3 (00:00) 20.2 6.94 (20:40) 3.33 (22:50) 0 0 0 0 0
12-09-2018 29.5 (17:00) 10.5 (00:00) 20 8.06 (23:00) 2.78 (22:40) 0 0 0 0 0
11-09-2018 29.2 (16:50) 12.2 (00:00) 20.7 10.83 (18:50) 5.28 (18:50) 0 0 0 0 0
10-09-2018 26.9 (17:30) 12.6 (00:00) 19.8 9.17 (11:50) 3.61 (10:10) 0 0 0 0 0
09-09-2018 26 (16:00) 13.2 (00:00) 19.6 9.72 (01:10) 4.72 (01:10) 6.2 6.2 0 0 0
08-09-2018 27.8 (15:10) 12.9 (00:00) 20.3 12.5 (16:20) 5.28 (16:20) 0 0 0 0 0
07-09-2018 24.3 (16:50) 10.1 (00:00) 17.2 9.44 (11:50) 3.89 (12:00) 0 0 0 0 0
06-09-2018 23.9 (14:10) 11.8 (00:00) 17.8 10.28 (19:10) 4.72 (20:20) 0 0 0 0 0
05-09-2018 23.8 (16:30) 12.9 (00:00) 18.3 10.56 (13:10) 5.56 (13:40) 0 0 0 0 0
04-09-2018 27.2 (16:40) 12.3 (00:00) 19.8 11.94 (01:30) 5.83 (01:30) 0 0 0 0 0
03-09-2018 28.2 (15:50) 16.5 (00:00) 22.4 11.39 (22:30) 5.56 (23:00) 0.2 0 0.2 0 0
02-09-2018 32.8 (16:00) 12.3 (00:00) 22.5 7.5 (21:20) 3.61 (21:40) 0 0 0 0 0
01-09-2018 30.5 (17:30) 11.5 (00:00) 21 7.5 (12:50) 3.61 (09:20) 0 0 0 0 0
31-08-2018 28.2 (17:10) 10.9 (00:00) 19.6 8.33 (11:00) 3.89 (10:40) 0 0 0 0 0
30-08-2018 28.6 (17:20) 12.1 (00:00) 20.4 10 (00:50) 4.44 (00:30) 0 0 0 0 0
29-08-2018 28.3 (15:40) 12.6 (00:00) 20.4 9.17 (16:10) 4.17 (21:00) 0 0 0 0 0
28-08-2018 30.7 (16:30) 15.7 (00:00) 23.2 11.11 (12:00) 5 (18:20) 0 0 0 0 0
27-08-2018 31.9 (17:00) 12.5 (00:00) 22.2 6.67 (16:10) 2.5 (00:50) 0 0 0 0 0
26-08-2018 28.4 (17:30) 10.2 (00:00) 19.3 6.67 (15:00) 2.5 (03:30) 0 0 0 0 0
25-08-2018 24.7 (17:20) 9.5 (00:00) 17.1 9.17 (20:40) 3.06 (18:00) 0 0 0 0 0

Gráficas

Temp. máximas Temp. mínimas Temp. medias Precipitaciones Rachas de viento máximas Velocidades máximas media en intervalos de 10 minutos

Datos horarios

Fecha y hora oficial Temperatura (ºC) Velocidad del viento (km/h) Dirección del viento Racha (km/h) Dirección de racha Precipitación (mm) Presión (hPa) Tendencia (hPa) Humedad (%)
2018-09-23 23:00:00 18 10 Nordeste 23 Nordeste 0 932.2 1.8 70
2018-09-23 22:00:00 19.9 7 Nordeste 21 Este 0 931.8 2.5 65
2018-09-23 21:00:00 21.2 9 Nordeste 26 Nordeste 0 931 1.9 62
2018-09-23 20:00:00 23.6 12 Nordeste 26 Nordeste 0 930.4 1 55
2018-09-23 19:00:00 25.5 2 Norte 14 Sudoeste 0 929.3 -0.3 47
2018-09-23 18:00:00 29.3 2 Oeste 10 Sudoeste 0 929.1 -1.1 29
2018-09-23 17:00:00 29.9 4 Noroeste 18 Sudoeste 0 929.4 -1.4 29
2018-09-23 16:00:00 30.1 4 Oeste 18 Sudoeste 0 929.6 -1.7 27
2018-09-23 15:00:00 29.3 6 Oeste 19 Sudoeste 0 930.2 -1.5 25
2018-09-23 14:00:00 28.7 5 Sudoeste 21 Sur 0 930.8 -1.1 26
2018-09-23 13:00:00 27 3 Sudoeste 10 Sur 0 931.3 -0.2 35
2018-09-23 12:00:00 25.1 2 Sur 9 Sudeste 0 931.7 0.6 42
2018-09-23 11:00:00 22.8 2 Sur 10 Nordeste 0 931.9 1 49
2018-09-23 10:00:00 19.3 4 Este 12 Nordeste 0 931.5 0.8 67
2018-09-23 09:00:00 13.3 0 Calma 5 Nordeste 0 931.1 0.5 96
2018-09-23 08:00:00 12.3 2 Nordeste 9 Norte 0 930.9 0.2 92
2018-09-23 07:00:00 13.8 0 Calma 16 Nordeste 0 930.7 -0.4 84
2018-09-23 06:00:00 15.2 7 Nordeste 15 Nordeste 0 930.6 -0.7 84
2018-09-23 05:00:00 14.1 4 Nordeste 9 Nordeste 0 930.7 -0.8 91
2018-09-23 04:00:00 14.9 3 Norte 10 Nordeste 0 931.1 -0.3 85
2018-09-23 03:00:00 16.4 6 Nordeste 12 Nordeste 0 931.3 0 80
2018-09-23 02:00:00 17 5 Nordeste 12 Nordeste 0 931.5 0.3 78
2018-09-23 01:00:00 18 6 Nordeste 22 Norte 0 931.4 0.7 73
2018-09-23 00:00:00 19 9 Nordeste 19 Norte 0 931.3 1.1 69
2018-09-22 23:00:00 18.3 9 Norte 18 Norte 0 931.2 1.6 66
2018-09-22 22:00:00 15.9 2 Norte 4 Noroeste 0 930.7 1.1 77
2018-09-22 21:00:00 18.1 0 Calma 0 Calma 0 930.2 0.7 72
2018-09-22 20:00:00 21 0 Calma 3 Sudeste 0 929.6 -0.1 65
2018-09-22 19:00:00 24.1 0 Calma 9 Sudoeste 0 929.6 -0.4 40
2018-09-22 18:00:00 28.7 2 Sudoeste 15 Sudoeste 0 929.5 -0.7 31
2018-09-22 17:00:00 29.4 4 Oeste 21 Sudoeste 0 929.7 -1 26
2018-09-22 16:00:00 29 3 Oeste 17 Oeste 0 930 -1.1 26
2018-09-22 15:00:00 28.3 4 Oeste 22 Sur 0 930.2 -1.2 30
2018-09-22 14:00:00 26.3 6 Oeste 21 Sudoeste 0 930.7 -0.4 32
2018-09-22 13:00:00 24.9 7 Sudoeste 19 Sudoeste 0 931.1 0.3 44
2018-09-22 12:00:00 22.3 3 Noroeste 8 Sudeste 0 931.4 1.1 52
2018-09-22 11:00:00 19.5 3 Sudoeste 8 Sudeste 0 931.1 1 63
2018-09-22 10:00:00 15.8 3 Sudeste 6 Sudeste 0 930.8 1.2 84
2018-09-22 09:00:00 11 0 Calma 3 Norte 0 930.3 0.6 97
2018-09-22 08:00:00 9.8 0 Calma 5 Noroeste 0 930.1 0.5 94
2018-09-22 07:00:00 10.9 0 Calma 5 Noroeste 0 929.6 0.1 95
2018-09-22 06:00:00 12.4 2 Nordeste 12 Nordeste 0 929.7 -0.2 95
2018-09-22 05:00:00 12.8 5 Nordeste 12 Norte 0 929.6 -0.1 95
2018-09-22 04:00:00 12.9 3 Norte 13 Nordeste 0 929.5 -0.1 93
2018-09-22 03:00:00 13.6 6 Nordeste 15 Norte 0 929.9 0.1 91
2018-09-22 02:00:00 13.9 6 Norte 14 Nordeste 0 929.7 0.2 86
2018-09-22 01:00:00 14.4 4 Nordeste 12 Nordeste 0 929.6 0.6 84
2018-09-22 00:00:00 15 5 Nordeste 22 Este 0 929.8 1.9 81
2018-09-21 23:00:00 16 10 Nordeste 21 Nordeste 0 929.5 2.1 77
2018-09-21 22:00:00 17.5 9 Nordeste 20 Nordeste 0 929 1.8 70
2018-09-21 21:00:00 15.8 5 Norte 13 Norte 0 927.9 1 66
2018-09-21 20:00:00 18.6 0 Calma 4 Norte 0 927.4 0.4 61
2018-09-21 19:00:00 21.4 2 Norte 4 Norte 0 927.2 0.1 55
2018-09-21 18:00:00 23.2 2 Noroeste 10 Oeste 0 926.9 -0.3 45
2018-09-21 17:00:00 25.2 3 Norte 22 Sudoeste 0 927 -0.7 27
2018-09-21 16:00:00 25.6 7 Sudoeste 21 Sudoeste 0 927.1 -1.1 32
2018-09-21 15:00:00 25.1 5 Sudoeste 17 Sudoeste 0 927.2 -0.9 30
2018-09-21 14:00:00 23.6 6 Sudoeste 18 Sur 0 927.7 -0.1 31
2018-09-21 13:00:00 23.3 5 Sudoeste 14 Sudoeste 0 928.2 0.7 32
2018-09-21 12:00:00 20.4 3 Norte 8 Norte 0 928.1 1.2 49
2018-09-21 11:00:00 17.6 0 Calma 9 Norte 0 927.8 1.5 58
2018-09-21 10:00:00 14.5 0 Calma 11 Sudoeste 0 927.5 1.7 70
2018-09-21 09:00:00 10 2 Este 5 Norte 0 926.9 1.4 95
2018-09-21 08:00:00 8.1 0 Calma 6 Sudoeste 0 926.3 1.2 95
2018-09-21 07:00:00 8.3 0 Calma 5 Sudoeste 0 925.8 0.5 94
2018-09-21 06:00:00 8.8 3 Sudoeste 6 Oeste 0 925.5 0.2 94
2018-09-21 05:00:00 9.3 0 Calma 4 Sudeste 0 925.1 0 93
2018-09-21 04:00:00 9.9 0 Calma 4 Sudoeste 0 925.3 0.1 91
2018-09-21 03:00:00 10.5 0 Calma 3 Noroeste 0 925.3 0 86
2018-09-21 02:00:00 11.6 0 Calma 4 Noroeste 0 925.1 -0.3 84
2018-09-21 01:00:00 12.4 0 Calma 3 Oeste 0 925.2 0.1 80
2018-09-21 00:00:00 13.1 0 Calma 3 Noroeste 0 925.3 0.7 80
2018-09-20 23:00:00 14.3 0 Calma 3 Noroeste 0 925.4 1.1 71
2018-09-20 22:00:00 16.4 0 Calma 4 Norte 0 925.1 0.7 67
2018-09-20 21:00:00 18.8 0 Calma 8 Sudoeste 0 924.6 0.3 59
2018-09-20 20:00:00 23 3 Sudoeste 17 Sur 0 924.3 -0.5 37
2018-09-20 19:00:00 26.4 6 Sudoeste 25 Sudoeste 0 924.4 -0.9 26
2018-09-20 18:00:00 28.6 8 Sudoeste 35 Sudoeste 0 924.3 -1.5 27
2018-09-20 17:00:00 29 7 Sudoeste 37 Sudoeste 0 924.8 -1.8 26
2018-09-20 16:00:00 29.1 7 Sudoeste 35 Sur 0 925.3 -2 26
2018-09-20 15:00:00 29 7 Sudoeste 29 Sudoeste 0 925.8 -1.8 28
2018-09-20 14:00:00 28.1 7 Sudoeste 24 Sudoeste 0 926.6 -1.2 29
2018-09-20 13:00:00 26.2 6 Sudoeste 17 Sur 0 927.3 -0.2 38
2018-09-20 12:00:00 23.8 4 Sur 10 Sudoeste 0 927.6 0.2 50
2018-09-20 11:00:00 21 2 Sudeste 9 Este 0 927.8 0.4 62
2018-09-20 10:00:00 17.4 4 Nordeste 10 Nordeste 0 927.5 0.3 78
2018-09-20 09:00:00 13 3 Norte 7 Nordeste 0 927.4 0.1 97
2018-09-20 08:00:00 11.1 0 Calma 4 Nordeste 0 927.4 -0.1 94
2018-09-20 07:00:00 12.6 3 Nordeste 10 Nordeste 0 927.2 -0.7 94
2018-09-20 06:00:00 13.4 3 Norte 13 Nordeste 0 927.3 -0.6 94
2018-09-20 05:00:00 13.2 6 Nordeste 14 Nordeste 0 927.5 -0.4 95
2018-09-20 04:00:00 12.7 3 Norte 7 Noroeste 0 927.9 0 93
2018-09-20 03:00:00 13.4 2 Norte 5 Noroeste 0 927.9 0 83
2018-09-20 02:00:00 15.4 3 Nordeste 13 Nordeste 0 927.9 0.2 79
2018-09-20 01:00:00 16.8 6 Nordeste 21 Nordeste 0 927.9 0.3 73
2018-09-20 00:00:00 16.6 8 Nordeste 18 Nordeste 0 927.9 0.8 62
2018-09-19 23:00:00 14.7 0 Calma 4 Noroeste 0 927.7 0.9 79
2018-09-19 22:00:00 16.4 0 Calma 3 Norte 0 927.6 1 77
2018-09-19 21:00:00 18.7 3 Norte 4 Norte 0 927.1 0.6 71
2018-09-19 20:00:00 21.4 0 Calma 6 Noroeste 0 926.8 0.1 61
2018-09-19 19:00:00 24.5 3 Sudoeste 17 Sudoeste 0 926.6 -0.6 44
2018-09-19 18:00:00 27.8 3 Sudoeste 18 Sudoeste 0 926.5 -1.1 34
2018-09-19 17:00:00 28.6 4 Oeste 22 Sudoeste 0 926.7 -1.2 32
2018-09-19 16:00:00 28.7 5 Sudoeste 17 Sudoeste 0 927.2 -1.2 29
2018-09-19 15:00:00 27.9 5 Sudoeste 19 Sur 0 927.6 -1 31
2018-09-19 14:00:00 27.3 7 Sudeste 15 Sur 0 927.9 -0.7 34
2018-09-19 13:00:00 25.3 4 Oeste 12 Sudoeste 0 928.4 0.3 44
2018-09-19 12:00:00 23.4 4 Sur 11 Sur 0 928.6 1.1 51
2018-09-19 11:00:00 20.6 4 Sudeste 11 Este 0 928.6 1.6 63
2018-09-19 10:00:00 17.5 4 Nordeste 11 Nordeste 0 928.1 1.6 81
2018-09-19 09:00:00 14.1 4 Nordeste 8 Norte 0 927.5 1.2 96
2018-09-19 08:00:00 13.4 3 Norte 13 Nordeste 0 927 0.9 95
2018-09-19 07:00:00 13.9 4 Nordeste 14 Norte 0 926.5 0.2 94
2018-09-19 06:00:00 14 5 Norte 16 Este 0 926.3 0 96
2018-09-19 05:00:00 14.4 6 Nordeste 14 Norte 0 926.1 -0.1 94
2018-09-19 04:00:00 14.7 5 Nordeste 16 Norte 0 926.3 0 93
2018-09-19 03:00:00 15.5 5 Nordeste 16 Nordeste 0 926.3 0.4 90
2018-09-19 02:00:00 15.5 6 Nordeste 14 Norte 0 926.2 0.6 86
2018-09-19 01:00:00 15.8 6 Nordeste 13 Norte 0 926.3 1 85
2018-09-19 00:00:00 16.5 5 Nordeste 18 Nordeste 0 925.9 1.8 80
2018-09-18 23:00:00 17.4 10 Nordeste 20 Nordeste 0 925.6 2 75
2018-09-18 22:00:00 18.4 8 Nordeste 23 Nordeste 0 925.3 2 67
2018-09-18 21:00:00 17.6 0 Calma 4 Norte 0 924.1 1.2 68
2018-09-18 20:00:00 20.8 0 Calma 10 Sudoeste 0 923.6 0.8 58
2018-09-18 19:00:00 24.9 4 Sudoeste 20 Sudoeste 0 923.3 0.4 33
2018-09-18 18:00:00 27.4 3 Sudoeste 22 Sudoeste 0 922.9 -0.3 27
2018-09-18 17:00:00 28.1 4 Sudoeste 22 Sudoeste 0 922.8 -1.1 25
2018-09-18 16:00:00 28.5 7 Sudoeste 23 Sur 0 922.9 -1.2 28
2018-09-18 15:00:00 27.9 7 Sudoeste 32 Sudoeste 0 923.2 -1 32
2018-09-18 14:00:00 27.1 6 Sudoeste 25 Sudoeste 0 923.9 -0.2 34
2018-09-18 13:00:00 26.2 4 Sudoeste 13 Sudoeste 0 924.1 0.2 40
2018-09-18 12:00:00 24.7 4 Sur 13 Sudoeste 0 924.2 0.6 47
2018-09-18 11:00:00 22.3 5 Sur 13 Sudeste 0 924.1 1.2 57
2018-09-18 10:00:00 19.1 3 Este 10 Sudeste 0 923.9 1.4 66
2018-09-18 09:00:00 14.5 2 Noroeste 5 Noroeste 0 923.6 1.2 85
2018-09-18 08:00:00 13.8 0 Calma 11 Nordeste 0 922.9 0.6 82
2018-09-18 07:00:00 14.8 3 Nordeste 12 Nordeste 0 922.5 -0.2 79
2018-09-18 06:00:00 15.4 4 Norte 9 Nordeste 0 922.4 -0.3 78
2018-09-18 05:00:00 16.4 2 Norte 10 Nordeste 0 922.3 -0.4 74
2018-09-18 04:00:00 16.9 3 Norte 8 Norte 0 922.7 -0.1 74
2018-09-18 03:00:00 17.3 3 Norte 7 Nordeste 0 922.7 0.2 72
2018-09-18 02:00:00 19 2 Nordeste 14 Sudeste 0 922.7 0.4 64
2018-09-18 01:00:00 20.2 7 Sudeste 23 Sudeste 0 922.8 0.8 58
2018-09-18 00:00:00 20.1 5 Este 19 Este 0 922.5 0.9 54
2018-09-17 23:00:00 16.9 3 Nordeste 8 Este 0 922.3 1.2 74
2018-09-17 22:00:00 18.2 0 Calma 6 Sur 0 922 1 70
2018-09-17 21:00:00 20.1 3 Sur 11 Sudeste 0 921.6 0.3 60
2018-09-17 20:00:00 23.4 5 Sudeste 21 Sur 0 921.1 -0.7 41
2018-09-17 19:00:00 24.8 2 Norte 12 Oeste 0 921 -1.5 50
2018-09-17 18:00:00 28.2 5 Sudoeste 17 Sudoeste 0 921.3 -2 27
2018-09-17 17:00:00 29.7 4 Sudoeste 27 Sudoeste 0 921.8 -2 24
2018-09-17 16:00:00 28.3 4 Sudoeste 22 Sur 0 922.5 -2.1 28
2018-09-17 15:00:00 29.1 4 Sudoeste 25 Sudoeste 0 923.3 -1.8 27
2018-09-17 14:00:00 27.7 3 Noroeste 13 Sudeste 0 923.8 -1.7 31
2018-09-17 13:00:00 26.2 6 Sudeste 12 Sudeste 0 924.6 -0.9 38
2018-09-17 12:00:00 23.5 4 Oeste 10 Sudoeste 0 925.1 -0.5 45
2018-09-17 11:00:00 22 5 Sudeste 12 Sudeste 0 925.5 0.1 52
2018-09-17 10:00:00 18.9 4 Este 10 Este 0 925.5 0.4 64
2018-09-17 09:00:00 13.6 3 Nordeste 6 Norte 0 925.6 0.5 94
2018-09-17 08:00:00 11.4 0 Calma 5 Este 0 925.4 0 94
2018-09-17 07:00:00 12.1 2 Norte 7 Nordeste 0 925.1 -0.5 93
2018-09-17 06:00:00 12 2 Nordeste 6 Nordeste 0 925.1 -0.8 93
2018-09-17 05:00:00 13 0 Calma 5 Norte 0 925.4 -0.9 85
2018-09-17 04:00:00 14 4 Nordeste 9 Nordeste 0 925.6 -0.9 86
2018-09-17 03:00:00 13.7 4 Norte 8 Norte 0 925.9 -0.7 83
2018-09-17 02:00:00 15.3 0 Calma 13 Norte 0 926.3 -0.5 75
2018-09-17 01:00:00 17 4 Nordeste 14 Nordeste 0 926.5 -0.2 68
2018-09-17 00:00:00 18 6 Nordeste 15 Nordeste 0 926.6 0.8 65
2018-09-16 23:00:00 19.2 6 Nordeste 19 Nordeste 0 926.8 1.2 62
2018-09-16 22:00:00 20.5 7 Nordeste 18 Nordeste 0 926.7 1.1 51
2018-09-16 21:00:00 19.7 3 Norte 7 Noroeste 0 925.8 0.3 64
2018-09-16 20:00:00 22.4 2 Norte 4 Norte 0 925.6 0 58
2018-09-16 19:00:00 25.5 2 Norte 10 Norte 0 925.6 -0.5 41
2018-09-16 18:00:00 28.8 4 Oeste 17 Sur 0 925.5 -1 27
2018-09-16 17:00:00 29.4 2 Sudoeste 21 Sudoeste 0 925.6 -1.3 24
2018-09-16 16:00:00 29.5 5 Sudoeste 20 Sur 0 926.1 -1.4 26
2018-09-16 15:00:00 29.3 5 Sudoeste 23 Sudeste 0 926.5 -1.4 29
2018-09-16 14:00:00 27.9 7 Sudoeste 24 Sudoeste 0 926.9 -1 32
2018-09-16 13:00:00 26 4 Sudoeste 13 Sudoeste 0 927.5 0.1 41
2018-09-16 12:00:00 24.3 6 Sur 13 Sudeste 0 927.9 0.5 46
2018-09-16 11:00:00 21.8 4 Sudeste 12 Sudeste 0 927.9 0.7 53
2018-09-16 10:00:00 19.2 6 Sudeste 14 Este 0 927.4 0.6 62
2018-09-16 09:00:00 15.1 3 Nordeste 10 Nordeste 0 927.4 1 78
2018-09-16 08:00:00 12.7 0 Calma 8 Norte 0 927.2 0.9 84
2018-09-16 07:00:00 13.5 0 Calma 13 Nordeste 0 926.8 0.2 79
2018-09-16 06:00:00 14.2 5 Nordeste 10 Norte 0 926.4 -0.5 77
2018-09-16 05:00:00 14.1 3 Nordeste 12 Nordeste 0 926.3 -0.7 78
2018-09-16 04:00:00 14.3 0 Calma 6 Nordeste 0 926.6 -0.4 77
2018-09-16 03:00:00 15.6 3 Nordeste 11 Nordeste 0 926.9 -0.4 70
2018-09-16 02:00:00 16.5 0 Calma 13 Nordeste 0 927 -0.4 67
2018-09-16 01:00:00 18.1 5 Nordeste 17 Nordeste 0 927 0.1 60
2018-09-16 00:00:00 18.3 5 Nordeste 12 Nordeste 0 927.3 1.3 58
2018-09-15 23:00:00 18.7 3 Nordeste 10 Nordeste 0 927.4 1.8 55
2018-09-15 22:00:00 21.4 7 Nordeste 20 Nordeste 0 926.9 1.6 44
2018-09-15 21:00:00 18.5 2 Norte 4 Noroeste 0 926 0.9 73
2018-09-15 20:00:00 21.6 0 Calma 4 Norte 0 925.6 0.2 67
2018-09-15 19:00:00 24.2 0 Calma 6 Norte 0 925.3 -0.4 48
2018-09-15 18:00:00 27.4 3 Noroeste 10 Noroeste 0 925.1 -1.2 35
2018-09-15 17:00:00 28.4 7 Noroeste 19 Noroeste 0 925.4 -1.5 30
2018-09-15 16:00:00 28.5 7 Norte 14 Norte 0 925.7 -1.5 26
2018-09-15 15:00:00 28.1 3 Noroeste 12 Norte 0 926.3 -1.6 32
2018-09-15 14:00:00 27.3 3 Sur 15 Este 0 926.9 -1.2 39
2018-09-15 13:00:00 24.7 4 Este 15 Sudeste 0 927.2 -0.7 45
2018-09-15 12:00:00 22.6 5 Este 14 Nordeste 0 927.9 0.2 49
2018-09-15 11:00:00 19.4 6 Nordeste 22 Nordeste 0 928.1 0.8 62
2018-09-15 10:00:00 16.6 8 Nordeste 19 Nordeste 0 927.9 0.8 73
2018-09-15 09:00:00 14 6 Nordeste 18 Nordeste 0 927.7 0.7 83
2018-09-15 08:00:00 12.3 7 Nordeste 20 Norte 0 927.3 0.3 93
2018-09-15 07:00:00 12.5 6 Nordeste 21 Nordeste 0 927.1 0 92
2018-09-15 06:00:00 13 11 Nordeste 23 Nordeste 0 927 -0.5 89
2018-09-15 05:00:00 13.4 10 Nordeste 25 Nordeste 0 927 -0.7 86
2018-09-15 04:00:00 13.6 6 Nordeste 19 Nordeste 0 927.1 -0.6 90
2018-09-15 03:00:00 14 5 Nordeste 20 Nordeste 0 927.5 -0.1 86
2018-09-15 02:00:00 14.7 8 Nordeste 22 Este 0 927.7 0.4 86
2018-09-15 01:00:00 15.1 6 Nordeste 22 Nordeste 0 927.7 0.8 85
2018-09-15 00:00:00 15.9 8 Nordeste 29 Nordeste 0 927.6 1.6 83
2018-09-14 23:00:00 16.7 12 Nordeste 28 Nordeste 0 927.3 2.3 81
2018-09-14 22:00:00 17.9 13 Nordeste 30 Nordeste 0 926.9 2 76
2018-09-14 21:00:00 21.5 11 Nordeste 34 Nordeste 0 926 1.1 60
2018-09-14 20:00:00 21.3 0 Calma 5 Norte 0 925 0 64
2018-09-14 19:00:00 24.1 4 Norte 16 Noroeste 0 924.9 -0.6 44
2018-09-14 18:00:00 28 4 Norte 12 Nordeste 0 924.9 -1.3 33
2018-09-14 17:00:00 28.5 4 Oeste 13 Sudoeste 0 925 -1.7 35
2018-09-14 16:00:00 28.1 4 Nordeste 13 Noroeste 0 925.5 -1.7 33
2018-09-14 15:00:00 27.6 3 Este 12 Este 0 926.2 -1.3 33
2018-09-14 14:00:00 25.8 3 Oeste 13 Este 0 926.7 -0.8 39
2018-09-14 13:00:00 24.4 5 Este 18 Este 0 927.2 -0.1 43
2018-09-14 12:00:00 22.1 5 Este 19 Norte 0 927.5 0.3 52
2018-09-14 11:00:00 18.8 12 Nordeste 24 Nordeste 0 927.5 0.4 62
2018-09-14 10:00:00 15.9 8 Nordeste 20 Nordeste 0 927.3 0.6 75
2018-09-14 09:00:00 13.3 5 Nordeste 13 Nordeste 0 927.2 0.6 88
2018-09-14 08:00:00 11.1 3 Nordeste 13 Nordeste 0 927.1 0.2 95
2018-09-14 07:00:00 11.6 4 Nordeste 15 Nordeste 0 926.7 -0.2 94
2018-09-14 06:00:00 11 4 Norte 13 Este 0 926.6 -0.6 95
2018-09-14 05:00:00 11.9 2 Norte 9 Nordeste 0 926.9 -0.5 93
2018-09-14 04:00:00 12.7 4 Nordeste 15 Nordeste 0 926.9 -0.5 92
2018-09-14 03:00:00 13.4 5 Nordeste 17 Nordeste 0 927.2 0.1 89
2018-09-14 02:00:00 14.2 6 Nordeste 19 Nordeste 0 927.4 0.4 84
2018-09-14 01:00:00 14.9 9 Nordeste 21 Nordeste 0 927.4 0.6 82
2018-09-14 00:00:00 15.6 10 Nordeste 23 Nordeste 0 927.1 0.9 79
2018-09-13 23:00:00 16.7 11 Nordeste 24 Nordeste 0 927 1.4 73
2018-09-13 22:00:00 18.5 10 Nordeste 23 Nordeste 0 926.8 1.2 66
2018-09-13 21:00:00 21 9 Nordeste 25 Nordeste 0 926.2 0.4 53
2018-09-13 20:00:00 21 0 Calma 4 Noroeste 0 925.6 -0.7 67
2018-09-13 19:00:00 23.6 2 Noroeste 5 Norte 0 925.6 -1.2 48
2018-09-13 18:00:00 27.2 3 Noroeste 9 Noroeste 0 925.8 -1.6 35
2018-09-13 17:00:00 27.6 3 Oeste 10 Norte 0 926.3 -1.6 30
2018-09-13 16:00:00 27.3 6 Norte 13 Norte 0 926.8 -1.8 33
2018-09-13 15:00:00 26.3 6 Noroeste 12 Nordeste 0 927.4 -1.4 36
2018-09-13 14:00:00 25.6 5 Este 19 Sudeste 0 927.9 -0.9 41
2018-09-13 13:00:00 24.3 7 Este 21 Este 0 928.6 0.2 46
2018-09-13 12:00:00 22.3 6 Este 22 Sudeste 0 928.8 0.5 54
2018-09-13 11:00:00 20.1 6 Este 18 Este 0 928.8 0.6 62
2018-09-13 10:00:00 17.6 7 Nordeste 21 Nordeste 0 928.4 0.4 75
2018-09-13 09:00:00 14.7 3 Nordeste 14 Norte 0 928.3 0.3 93
2018-09-13 08:00:00 12.5 6 Norte 15 Nordeste 0 928.2 0.1 96
2018-09-13 07:00:00 12.4 5 Nordeste 13 Nordeste 0 928 -0.7 95
2018-09-13 06:00:00 12.9 2 Nordeste 11 Norte 0 928 -1.2 94
2018-09-13 05:00:00 13.5 3 Nordeste 12 Norte 0 928.1 -1.2 93
2018-09-13 04:00:00 14.3 5 Nordeste 13 Nordeste 0 928.7 -0.7 92
2018-09-13 03:00:00 14.4 4 Norte 12 Nordeste 0 929.2 0.1 88
2018-09-13 02:00:00 14.9 5 Norte 14 Norte 0 929.3 0.4 85
2018-09-13 01:00:00 16 6 Norte 20 Nordeste 0 929.4 1.1 81
2018-09-13 00:00:00 17.4 8 Nordeste 22 Nordeste 0 929.1 1.4 75
2018-09-12 23:00:00 18.9 9 Nordeste 29 Nordeste 0 928.9 2 65
2018-09-12 22:00:00 20.8 6 Este 24 Este 0 928.3 1.3 59
2018-09-12 21:00:00 23.2 9 Nordeste 25 Nordeste 0 927.7 0.6 48
2018-09-12 20:00:00 22.5 0 Calma 8 Sur 0 926.9 -0.5 61
2018-09-12 19:00:00 26 4 Oeste 15 Sudeste 0 927 -0.9 36
2018-09-12 18:00:00 28.5 4 Sudoeste 20 Sudoeste 0 927.1 -1.3 28
2018-09-12 17:00:00 29.2 4 Oeste 19 Sudoeste 0 927.4 -1.6 29
2018-09-12 16:00:00 29.1 5 Sudoeste 19 Sur 0 927.9 -1.7 29
2018-09-12 15:00:00 28 4 Oeste 19 Sur 0 928.4 -1.5 33
2018-09-12 14:00:00 27.1 4 Sur 12 Sudoeste 0 929 -0.8 42
2018-09-12 13:00:00 25.3 5 Sur 12 Sudoeste 0 929.6 0.1 44
2018-09-12 12:00:00 23.3 3 Nordeste 9 Sudoeste 0 929.9 0.5 52
2018-09-12 11:00:00 21.3 4 Sudeste 10 Sur 0 929.8 1 56
2018-09-12 10:00:00 18.4 5 Sudeste 15 Este 0 929.5 0.8 66
2018-09-12 09:00:00 13.8 2 Este 7 Nordeste 0 929.4 0.5 86
2018-09-12 08:00:00 10.8 0 Calma 3 Noroeste 0 928.8 -0.2 94
2018-09-12 07:00:00 11.1 0 Calma 7 Norte 0 928.7 -0.1 92
2018-09-12 06:00:00 11.6 2 Nordeste 6 Nordeste 0 928.9 -0.2 89
2018-09-12 05:00:00 12.2 2 Norte 6 Norte 0 929 -0.5 83
2018-09-12 04:00:00 13.4 3 Nordeste 12 Nordeste 0 928.8 -0.9 78
2018-09-12 03:00:00 14.2 6 Nordeste 14 Nordeste 0 929.1 -0.6 74
2018-09-12 02:00:00 14.6 5 Norte 12 Nordeste 0 929.5 0 72
2018-09-12 01:00:00 14.6 4 Norte 11 Nordeste 0 929.7 0.4 73
2018-09-12 00:00:00 14.1 3 Nordeste 8 Nordeste 0 929.7 1.4 76
2018-09-11 23:00:00 15.2 3 Norte 14 Este 0 929.5 1.4 74
2018-09-11 22:00:00 16.5 6 Nordeste 15 Sudeste 0 929.3 1.1 70
2018-09-11 21:00:00 18.4 4 Norte 12 Sudeste 0 928.3 0.4 66
2018-09-11 20:00:00 21.2 5 Sudeste 31 Sudeste 0 928.1 0 54
2018-09-11 19:00:00 23.3 13 Sudeste 39 Sudeste 0 928.2 -0.6 47
2018-09-11 18:00:00 28.3 6 Sudeste 13 Sudeste 0 927.9 -1.7 24
2018-09-11 17:00:00 29.2 6 Sur 16 Nordeste 0 928.1 -1.9 22
2018-09-11 16:00:00 28.4 6 Norte 18 Sudeste 0 928.8 -2 25
2018-09-11 15:00:00 28.3 5 Sudeste 17 Sudoeste 0 929.6 -1.7 28
2018-09-11 14:00:00 26.9 4 Este 14 Este 0 930 -1.5 35
2018-09-11 13:00:00 26.1 5 Sudeste 14 Este 0 930.8 -0.7 35
2018-09-11 12:00:00 24.3 5 Sur 17 Sudeste 0 931.3 -0.1 50
2018-09-11 11:00:00 22.1 6 Este 15 Sudeste 0 931.5 0.5 58
2018-09-11 10:00:00 19.3 5 Este 12 Este 0 931.5 0.8 67
2018-09-11 09:00:00 15.2 4 Nordeste 9 Nordeste 0 931.4 0.9 81
2018-09-11 08:00:00 12.4 0 Calma 8 Nordeste 0 931 0.4 92
2018-09-11 07:00:00 13 2 Norte 13 Nordeste 0 930.7 0.1 85
2018-09-11 06:00:00 14.1 5 Nordeste 15 Nordeste 0 930.5 -0.2 84
2018-09-11 05:00:00 14.3 3 Nordeste 21 Este 0 930.6 -0.3 84
2018-09-11 04:00:00 15.1 7 Nordeste 19 Nordeste 0 930.6 -0.5 83
2018-09-11 03:00:00 15.4 8 Nordeste 18 Nordeste 0 930.7 -0.5 83
2018-09-11 02:00:00 15.9 8 Nordeste 18 Nordeste 0 930.9 -0.3 82
2018-09-11 01:00:00 16.1 8 Nordeste 18 Nordeste 0 931.1 0.2 82
2018-09-11 00:00:00 16.2 6 Nordeste 18 Nordeste 0 931.2 1.2 83
2018-09-10 23:00:00 17.2 7 Norte 15 Norte 0 931.2 1.8 77
2018-09-10 22:00:00 18.5 4 Nordeste 15 Nordeste 0 930.9 1.5 61
2018-09-10 21:00:00 20.3 4 Nordeste 12 Nordeste 0 930 0.6 55
2018-09-10 20:00:00 23.5 5 Nordeste 19 Nordeste 0 929.4 -0.2 43
2018-09-10 19:00:00 24.8 4 Nordeste 17 Nordeste 0 929.4 -0.7 34
2018-09-10 18:00:00 26.4 7 Nordeste 18 Nordeste 0 929.4 -1.3 30
2018-09-10 17:00:00 26.2 5 Nordeste 17 Norte 0 929.6 -1.5 30
2018-09-10 16:00:00 26.1 4 Nordeste 17 Norte 0 930.1 -1.3 37
2018-09-10 15:00:00 24.7 6 Nordeste 22 Nordeste 0 930.7 -1 40
2018-09-10 14:00:00 23.7 7 Este 20 Norte 0 931.1 -0.4 47
2018-09-10 13:00:00 22.3 8 Nordeste 27 Nordeste 0 931.4 0.3 52
2018-09-10 12:00:00 21 9 Este 33 Este 0 931.7 0.8 58
2018-09-10 11:00:00 18.6 13 Nordeste 30 Nordeste 0 931.5 1.1 67
2018-09-10 10:00:00 16.9 13 Nordeste 29 Nordeste 0 931.1 0.9 77
2018-09-10 09:00:00 14.3 7 Norte 18 Nordeste 0 930.9 1.2 91
2018-09-10 08:00:00 12.6 6 Nordeste 17 Norte 0 930.4 0.5 94
2018-09-10 07:00:00 13.2 7 Nordeste 17 Norte 0 930.2 0.3 93
2018-09-10 06:00:00 13.3 6 Norte 19 Norte 0 929.7 -0.6 93
2018-09-10 05:00:00 13.7 8 Norte 19 Norte 0 929.9 -0.7 92
2018-09-10 04:00:00 13.9 8 Norte 21 Nordeste 0 929.9 -0.5 93
2018-09-10 03:00:00 14.2 6 Nordeste 16 Nordeste 0 930.3 0.2 92
2018-09-10 02:00:00 14.6 7 Nordeste 22 Norte 0 930.6 0.9 87
2018-09-10 01:00:00 14.8 8 Norte 22 Nordeste 0 930.4 1.3 86
2018-09-10 00:00:00 15.2 7 Nordeste 21 Nordeste 0 930.1 1.8 83
2018-09-09 23:00:00 15.9 6 Nordeste 23 Nordeste 0 929.7 2.2 81
2018-09-09 22:00:00 17.2 10 Nordeste 21 Norte 0 929.1 2 75
2018-09-09 21:00:00 18.4 9 Norte 17 Nordeste 0 928.3 1 69
2018-09-09 20:00:00 20.5 7 Norte 22 Nordeste 0 927.5 -0.1 55
2018-09-09 19:00:00 21.1 9 Nordeste 22 Norte 0 927.1 -0.1 49
2018-09-09 18:00:00 19.7 8 Norte 28 Norte 0 927.3 -0.1 62
2018-09-09 17:00:00 21 14 Norte 31 Nordeste 0 927.6 0.1 51
2018-09-09 16:00:00 25.5 7 Este 29 Norte 0 927.2 -0.6 40
2018-09-09 15:00:00 24.1 6 Sudeste 19 Sudeste 0 927.4 -0.7 45
2018-09-09 14:00:00 23.8 4 Sudoeste 10 Sur 0 927.5 -0.6 47
2018-09-09 13:00:00 22.5 4 Sudeste 12 Sudeste 0 927.8 0.1 54
2018-09-09 12:00:00 20.7 2 Sur 8 Sudoeste 0 928.1 0.9 59
2018-09-09 11:00:00 18.3 3 Sudoeste 11 Sudeste 0 928.1 1.4 72
2018-09-09 10:00:00 16.2 3 Sudeste 5 Sudeste 0 927.7 1.4 85
2018-09-09 09:00:00 14.2 3 Norte 6 Norte 0 927.2 1.2 97
2018-09-09 08:00:00 13.6 0 Calma 7 Sur 0 926.7 1 96
2018-09-09 07:00:00 13.8 4 Sur 11 Norte 0 926.3 0 95
2018-09-09 06:00:00 13.5 3 Noroeste 15 Nordeste 0.2 926 -0.3 95
2018-09-09 05:00:00 13.2 4 Norte 8 Norte 0 925.7 -0.1 95
2018-09-09 04:00:00 14.2 2 Oeste 15 Sur 0 926.3 -0.3 93
2018-09-09 03:00:00 14.6 4 Sudeste 14 Nordeste 0 926.3 0.7 91
2018-09-09 02:00:00 15.2 2 Nordeste 35 Sudeste 3.2 925.8 0.7 86
2018-09-09 01:00:00 16.3 9 Sudeste 24 Sudeste 2.8 926.6 1.8 78
2018-09-09 00:00:00 16.1 3 Norte 8 Nordeste 0 925.6 1.8 68
2018-09-08 23:00:00 15.5 0 Calma 5 Este 0 925.1 1.6 71
2018-09-08 22:00:00 16.1 2 Sur 6 Sur 0 924.8 1.7 71
2018-09-08 21:00:00 18.1 0 Calma 9 Sur 0 923.8 0.7 63
2018-09-08 20:00:00 21.8 5 Sur 18 Sudeste 0 923.5 0.2 42
2018-09-08 19:00:00 24 8 Sur 18 Sur 0 923.1 -0.3 39
2018-09-08 18:00:00 24.3 7 Sudoeste 26 Sudoeste 0 923.1 -0.7 40
2018-09-08 17:00:00 24.3 12 Sudoeste 45 Sur 0 923.3 -0.5 40
2018-09-08 16:00:00 26 12 Sur 24 Sur 0 923.4 -0.8 32
2018-09-08 15:00:00 27.5 8 Sur 22 Sur 0 923.8 -0.7 30
2018-09-08 14:00:00 26 7 Sur 18 Sur 0 923.8 -0.8 36
2018-09-08 13:00:00 25.2 5 Sudeste 14 Sudeste 0 924.2 -0.3 36
2018-09-08 12:00:00 23 3 Nordeste 16 Sudeste 0 924.5 0.7 43
2018-09-08 11:00:00 20.5 5 Sudeste 15 Sudeste 0 924.6 1.1 56
2018-09-08 10:00:00 18.2 6 Este 18 Nordeste 0 924.5 1.5 64
2018-09-08 09:00:00 15 7 Nordeste 13 Nordeste 0 923.8 0.2 77
2018-09-08 08:00:00 13.5 5 Norte 18 Norte 0 923.5 -0.5 79
2018-09-08 07:00:00 13.7 9 Norte 19 Nordeste 0 923 -1.2 80
2018-09-08 06:00:00 13.2 8 Norte 16 Nordeste 0 923.6 -0.5 82
2018-09-08 05:00:00 13.2 5 Nordeste 18 Nordeste 0 924 0 82
2018-09-08 04:00:00 12.9 6 Nordeste 19 Nordeste 0 924.2 -0.1 83
2018-09-08 03:00:00 13.1 7 Nordeste 21 Norte 0 924.1 -0.6 81
2018-09-08 02:00:00 13.7 10 Nordeste 21 Nordeste 0 924 -0.3 79
2018-09-08 01:00:00 14.1 9 Nordeste 23 Norte 0 924.3 0.4 78
2018-09-08 00:00:00 14.5 11 Nordeste 23 Norte 0 924.7 1.5 76
2018-09-07 23:00:00 15.7 12 Nordeste 27 Nordeste 0 924.3 1.8 71
2018-09-07 22:00:00 16.8 10 Nordeste 24 Nordeste 0 923.9 1.3 66
2018-09-07 21:00:00 18.5 10 Nordeste 26 Nordeste 0 923.2 0.6 56
2018-09-07 20:00:00 20.9 10 Nordeste 27 Nordeste 0 922.5 -0.3 44
2018-09-07 19:00:00 22.3 6 Nordeste 27 Nordeste 0 922.6 -0.5 37
2018-09-07 18:00:00 23.6 8 Nordeste 27 Nordeste 0 922.6 -0.8 35
2018-09-07 17:00:00 23.5 9 Nordeste 24 Nordeste 0 922.8 -1.1 35
2018-09-07 16:00:00 24.1 10 Este 31 Sudeste 0 923.1 -1.3 34
2018-09-07 15:00:00 23.2 11 Este 34 Este 0 923.4 -1.5 37
2018-09-07 14:00:00 22.1 10 Nordeste 32 Este 0 923.9 -1.1 42
2018-09-07 13:00:00 20.6 10 Este 32 Nordeste 0 924.4 -0.5 48
2018-09-07 12:00:00 18.7 14 Nordeste 34 Nordeste 0 924.9 0 54
2018-09-07 11:00:00 17.7 13 Este 32 Nordeste 0 925 0 61
2018-09-07 10:00:00 15.7 10 Nordeste 27 Nordeste 0 924.9 0.3 71
2018-09-07 09:00:00 12.9 11 Nordeste 25 Nordeste 0 924.9 0.5 85
2018-09-07 08:00:00 10.2 3 Nordeste 15 Este 0 925 0.6 93
2018-09-07 07:00:00 10.8 5 Nordeste 16 Norte 0 924.6 0 91
2018-09-07 06:00:00 11.5 6 Nordeste 23 Norte 0 924.4 -0.5 89
2018-09-07 05:00:00 11.8 8 Nordeste 17 Nordeste 0 924.4 -0.7 90
2018-09-07 04:00:00 11.7 7 Nordeste 17 Nordeste 0 924.6 -0.4 89
2018-09-07 03:00:00 11.9 4 Nordeste 14 Nordeste 0 924.9 -0.3 85
2018-09-07 02:00:00 12.4 5 Nordeste 26 Nordeste 0 925.1 0 82
2018-09-07 01:00:00 13.2 10 Nordeste 23 Nordeste 0 925 0 78
2018-09-07 00:00:00 13.1 5 Nordeste 22 Nordeste 0 925.2 0.8 77
2018-09-06 23:00:00 14.2 11 Nordeste 29 Nordeste 0 925.1 1.4 76
2018-09-06 22:00:00 14.8 12 Nordeste 27 Este 0 925 1.8 72
2018-09-06 21:00:00 15.8 14 Nordeste 36 Nordeste 0 924.4 1.6 69
2018-09-06 20:00:00 18.1 17 Nordeste 37 Nordeste 0 923.7 0.9 61
2018-09-06 19:00:00 20 14 Nordeste 33 Nordeste 0 923.2 0.3 53
2018-09-06 18:00:00 21.3 16 Nordeste 34 Nordeste 0 922.8 -0.3 44
2018-09-06 17:00:00 21.4 13 Nordeste 31 Norte 0 922.8 -0.3 47
2018-09-06 16:00:00 21.1 13 Nordeste 32 Nordeste 0 922.9 -0.6 49
2018-09-06 15:00:00 22.3 9 Nordeste 26 Norte 0 923.1 -0.5 42
2018-09-06 14:00:00 23.2 10 Nordeste 29 Nordeste 0 923.1 -0.5 39
2018-09-06 13:00:00 22 8 Nordeste 26 Nordeste 0 923.5 -0.1 43
2018-09-06 12:00:00 20.5 9 Nordeste 30 Nordeste 0 923.6 0.2 48
2018-09-06 11:00:00 18.8 12 Nordeste 28 Norte 0 923.6 0.7 58
2018-09-06 10:00:00 16.7 10 Norte 24 Nordeste 0 923.6 1 68
2018-09-06 09:00:00 13.3 9 Norte 21 Nordeste 0 923.4 1 84
2018-09-06 08:00:00 11.8 7 Norte 15 Norte 0 922.9 0.3 91
2018-09-06 07:00:00 12.2 5 Norte 20 Nordeste 0 922.6 -0.3 89
2018-09-06 06:00:00 12.7 10 Norte 19 Norte 0 922.4 -0.4 85
2018-09-06 05:00:00 12.8 7 Norte 17 Norte 0 922.6 -0.3 87
2018-09-06 04:00:00 13.3 7 Nordeste 21 Nordeste 0 922.9 0.1 87
2018-09-06 03:00:00 13.5 10 Nordeste 26 Nordeste 0 922.8 -0.4 89
2018-09-06 02:00:00 13.4 9 Norte 18 Nordeste 0 922.9 -0.5 90
2018-09-06 01:00:00 13.6 7 Norte 19 Nordeste 0 922.8 0 86
2018-09-06 00:00:00 14.2 6 Nordeste 16 Nordeste 0 923.2 1.1 84
2018-09-05 23:00:00 14.6 8 Nordeste 24 Nordeste 0 923.4 2 81
2018-09-05 22:00:00 15.3 12 Nordeste 25 Nordeste 0 922.8 1.5 79
2018-09-05 21:00:00 17 10 Nordeste 25 Nordeste 0 922.1 1.1 72
2018-09-05 20:00:00 18.4 13 Norte 28 Nordeste 0 921.4 0.5 65
2018-09-05 19:00:00 19.8 13 Nordeste 32 Nordeste 0 921.3 -0.2 59
2018-09-05 18:00:00 21.9 9 Norte 29 Norte 0 921 -0.8 51
2018-09-05 17:00:00 23.2 7 Nordeste 18 Nordeste 0 920.9 -1.2 44
2018-09-05 16:00:00 23.3 8 Nordeste 28 Nordeste 0 921.5 -1.3 49
2018-09-05 15:00:00 21.5 9 Nordeste 28 Norte 0 921.8 -1.5 54
2018-09-05 14:00:00 19.7 14 Nordeste 38 Nordeste 0 922.1 -0.7 60
2018-09-05 13:00:00 17.4 17 Norte 32 Norte 0 922.8 0.3 68
2018-09-05 12:00:00 17.2 7 Noroeste 20 Nordeste 0 923.3 1.3 72
2018-09-05 11:00:00 17.7 6 Nordeste 21 Nordeste 0 922.8 1.1 67
2018-09-05 10:00:00 16.5 8 Nordeste 24 Nordeste 0 922.5 1.4 74
2018-09-05 09:00:00 14.1 8 Nordeste 26 Nordeste 0 922 0.9 84
2018-09-05 08:00:00 13.2 10 Nordeste 27 Nordeste 0 921.7 0.5 86
2018-09-05 07:00:00 13 11 Nordeste 26 Nordeste 0 921.1 -0.2 83
2018-09-05 06:00:00 13.5 10 Nordeste 24 Nordeste 0 921.1 -0.2 80
2018-09-05 05:00:00 14.1 13 Nordeste 26 Nordeste 0 921.2 -0.4 73
2018-09-05 04:00:00 14.1 9 Nordeste 23 Nordeste 0 921.3 -0.2 73
2018-09-05 03:00:00 14 12 Nordeste 24 Nordeste 0 921.3 -0.4 72
2018-09-05 02:00:00 13.9 7 Nordeste 18 Norte 0 921.6 -0.3 75
2018-09-05 01:00:00 14.7 7 Nordeste 33 Nordeste 0 921.5 0.1 74
2018-09-05 00:00:00 15.4 14 Nordeste 33 Nordeste 0 921.7 0.8 74
2018-09-04 23:00:00 15.9 11 Nordeste 32 Nordeste 0 921.9 1.8 73
2018-09-04 22:00:00 16.7 14 Nordeste 38 Nordeste 0 921.4 1.9 72
2018-09-04 21:00:00 17.9 16 Nordeste 40 Nordeste 0 920.9 1.9 70
2018-09-04 20:00:00 20.2 17 Nordeste 39 Nordeste 0 920.1 0.9 60
2018-09-04 19:00:00 23.1 15 Nordeste 39 Nordeste 0 919.5 -0.1 50
2018-09-04 18:00:00 24.8 10 Nordeste 30 Nordeste 0 919 -0.8 42
2018-09-04 17:00:00 26.5 9 Nordeste 22 Norte 0 919.2 -0.7 35
2018-09-04 16:00:00 26.6 7 Este 24 Sudeste 0 919.6 -0.8 36
2018-09-04 15:00:00 26.5 11 Este 32 Sudeste 0 919.8 -0.9 35
2018-09-04 14:00:00 24.4 10 Este 31 Sudeste 0 919.9 -1.1 38
2018-09-04 13:00:00 23.6 11 Este 30 Nordeste 0 920.4 -0.8 40
2018-09-04 12:00:00 22.1 10 Este 35 Este 0 920.7 -0.2 40
2018-09-04 11:00:00 20 10 Nordeste 32 Este 0 921 0.1 40
2018-09-04 10:00:00 17.8 11 Nordeste 31 Nordeste 0 921.2 0.6 42
2018-09-04 09:00:00 14.8 11 Nordeste 26 Nordeste 0 920.9 0.3 55
2018-09-04 08:00:00 12.7 7 Nordeste 20 Nordeste 0 920.9 0.2 61
2018-09-04 07:00:00 12.5 6 Nordeste 16 Este 0 920.6 0 59
2018-09-04 06:00:00 12.6 5 Nordeste 20 Nordeste 0 920.6 0 55
2018-09-04 05:00:00 12.9 10 Nordeste 22 Nordeste 0 920.7 -0.6 57
2018-09-04 04:00:00 13.6 5 Nordeste 23 Norte 0 920.6 -1.4 50
2018-09-04 03:00:00 14.5 10 Norte 27 Norte 0 920.6 -2.4 49
2018-09-04 02:00:00 15.1 13 Norte 43 Nordeste 0 921.3 0.8 51
2018-09-04 01:00:00 16.4 15 Norte 28 Norte 0 922 1.6 43
2018-09-04 00:00:00 16.5 6 Noroeste 39 Nordeste 0 923 3.3 48
2018-09-03 23:00:00 16.8 20 Nordeste 41 Nordeste 0 920.5 1.4 52
2018-09-03 22:00:00 17.6 15 Nordeste 39 Nordeste 0 920.4 1.5 53
2018-09-03 21:00:00 19.2 17 Nordeste 39 Este 0 919.7 0.6 45
2018-09-03 20:00:00 22 18 Nordeste 40 Nordeste 0 919.1 -0.2 46
2018-09-03 19:00:00 24.1 18 Nordeste 40 Nordeste 0 918.9 -0.7 40
2018-09-03 18:00:00 26.6 16 Nordeste 36 Nordeste 0 919.1 -0.8 32
2018-09-03 17:00:00 27.5 10 Este 32 Nordeste 0 919.3 -1 27
2018-09-03 16:00:00 27.8 11 Nordeste 29 Nordeste 0 919.6 -1.5 25
2018-09-03 15:00:00 26.7 10 Nordeste 24 Nordeste 0 919.9 -1.7 29
2018-09-03 14:00:00 25.7 11 Este 28 Sudeste 0 920.3 -0.8 31
2018-09-03 13:00:00 23 14 Nordeste 32 Norte 0 921.1 -0.4 32
2018-09-03 12:00:00 19.8 5 Norte 24 Nordeste 0 921.6 0.5 55
2018-09-03 11:00:00 18 14 Nordeste 30 Nordeste 0 921.1 1.3 63
2018-09-03 10:00:00 17.3 5 Este 18 Sudoeste 0.2 921.5 1.7 71
2018-09-03 09:00:00 18.5 4 Sur 21 Norte 0 921.1 0.4 59
2018-09-03 08:00:00 17.7 12 Norte 24 Norte 0 919.8 -1.1 53
2018-09-03 07:00:00 17.7 12 Nordeste 27 Nordeste 0 919.8 -1.7 53
2018-09-03 06:00:00 17.5 10 Nordeste 20 Norte 0 920.7 -0.9 59
2018-09-03 05:00:00 17.8 10 Nordeste 22 Nordeste 0 920.9 -1.1 61
2018-09-03 04:00:00 18 8 Nordeste 19 Nordeste 0 921.5 0 65
2018-09-03 03:00:00 18.1 7 Nordeste 16 Nordeste 0 921.6 -0.4 66
2018-09-03 02:00:00 18.5 6 Este 21 Nordeste 0 922 0.1 65
2018-09-03 01:00:00 20.1 11 Nordeste 25 Nordeste 0 921.5 -0.3 59
2018-09-03 00:00:00 20 5 Nordeste 17 Este 0 922 0.6 55
2018-09-02 23:00:00 21.7 5 Nordeste 21 Nordeste 0 921.9 0.9 47
2018-09-02 22:00:00 23.4 10 Nordeste 27 Nordeste 0 921.8 0.7 42
2018-09-02 21:00:00 25 10 Norte 25 Nordeste 0 921.4 0.1 41
2018-09-02 20:00:00 24.7 2 Norte 5 Oeste 0 921 -0.7 56
2018-09-02 19:00:00 28.8 2 Nordeste 13 Oeste 0 921.1 -1 31
2018-09-02 18:00:00 31.6 3 Norte 17 Sur 0 921.3 -1.5 24
2018-09-02 17:00:00 32.1 4 Nordeste 17 Oeste 0 921.7 -1.7 26
2018-09-02 16:00:00 32.7 5 Sur 18 Sur 0 922.1 -1.8 24
2018-09-02 15:00:00 31.2 4 Oeste 12 Sur 0 922.8 -1.8 25
2018-09-02 14:00:00 30.3 3 Sur 8 Noroeste 0 923.4 -1.5 29
2018-09-02 13:00:00 28.6 3 Noroeste 10 Sur 0 923.9 -1.1 35
2018-09-02 12:00:00 27 4 Sur 10 Sudeste 0 924.6 -0.2 35
2018-09-02 11:00:00 23.8 3 Nordeste 10 Sudeste 0 924.9 0.2 47
2018-09-02 10:00:00 20.9 3 Este 11 Nordeste 0 925 0.5 52
2018-09-02 09:00:00 14.8 0 Calma 5 Norte 0 924.8 0 83
2018-09-02 08:00:00 12.3 0 Calma 8 Nordeste 0 924.7 -0.3 84
2018-09-02 07:00:00 12.8 4 Nordeste 10 Nordeste 0 924.5 -0.9 82
2018-09-02 06:00:00 12.3 2 Este 8 Nordeste 0 924.8 -0.9 83
2018-09-02 05:00:00 13.3 3 Nordeste 10 Nordeste 0 925 -1 80
2018-09-02 04:00:00 15.3 5 Nordeste 15 Norte 0 925.4 -0.6 73
2018-09-02 03:00:00 15.4 6 Norte 14 Norte 0 925.7 -0.2 80
2018-09-02 02:00:00 16.5 3 Este 12 Nordeste 0 926 0.3 79
2018-09-02 01:00:00 17.6 2 Nordeste 17 Nordeste 0 926 0.5 70
2018-09-02 00:00:00 19 5 Nordeste 15 Este 0 925.9 1.1 68
2018-09-01 23:00:00 20.3 6 Nordeste 18 Nordeste 0 925.7 1.1 62
2018-09-01 22:00:00 22 7 Nordeste 17 Nordeste 0 925.5 1 50
2018-09-01 21:00:00 24.1 7 Nordeste 18 Este 0 924.8 0.2 36
2018-09-01 20:00:00 27 6 Nordeste 20 Nordeste 0 924.6 -0.3 30
2018-09-01 19:00:00 29.1 5 Nordeste 19 Sudeste 0 924.5 -1 26
2018-09-01 18:00:00 30.4 4 Este 19 Nordeste 0 924.6 -1.4 24
2018-09-01 17:00:00 30.3 6 Sudeste 19 Sudeste 0 924.9 -1.5 25
2018-09-01 16:00:00 29.9 4 Nordeste 19 Este 0 925.5 -1.5 25
2018-09-01 15:00:00 28.7 8 Nordeste 20 Norte 0 926 -1.4 29
2018-09-01 14:00:00 27.2 7 Nordeste 20 Este 0 926.4 -1.2 31
2018-09-01 13:00:00 26.7 9 Este 27 Este 0 927 -0.5 34
2018-09-01 12:00:00 24.6 9 Este 22 Nordeste 0 927.4 0.1 44
2018-09-01 11:00:00 22.6 6 Este 21 Sudeste 0 927.6 0.3 52
2018-09-01 10:00:00 19.1 6 Nordeste 24 Nordeste 0 927.5 0.3 64
2018-09-01 09:00:00 15.6 7 Nordeste 17 Nordeste 0 927.3 0.1 78
2018-09-01 08:00:00 11.8 6 Norte 11 Norte 0 927.3 -0.2 95
2018-09-01 07:00:00 12.1 3 Norte 14 Nordeste 0 927.2 -0.6 93
2018-09-01 06:00:00 12.2 5 Norte 12 Nordeste 0 927.2 -0.7 93
2018-09-01 05:00:00 12.8 5 Nordeste 10 Nordeste 0 927.5 -0.3 92
2018-09-01 04:00:00 13.5 3 Nordeste 10 Este 0 927.8 0 90
2018-09-01 03:00:00 14.5 3 Nordeste 14 Nordeste 0 927.9 0.1 83
2018-09-01 02:00:00 15.3 6 Nordeste 23 Nordeste 0 927.8 0 81
2018-09-01 01:00:00 16.2 9 Nordeste 25 Nordeste 0 927.8 0.3 78
2018-09-01 00:00:00 17.2 9 Nordeste 25 Nordeste 0 927.8 1.1 73
2018-08-31 23:00:00 18.5 9 Nordeste 23 Nordeste 0 927.8 1.8 62
2018-08-31 22:00:00 19.6 9 Nordeste 26 Nordeste 0 927.5 1.6 59
2018-08-31 21:00:00 21.4 10 Nordeste 28 Nordeste 0 926.7 1 51
2018-08-31 20:00:00 23.7 12 Nordeste 30 Este 0 926 0 42
2018-08-31 19:00:00 26.1 9 Nordeste 25 Nordeste 0 925.9 -0.4 37
2018-08-31 18:00:00 27.5 9 Este 26 Norte 0 925.7 -1 32
2018-08-31 17:00:00 27.9 6 Nordeste 20 Nordeste 0 926 -0.9 31
2018-08-31 16:00:00 27.8 4 Nordeste 21 Norte 0 926.3 -1.1 27
2018-08-31 15:00:00 26.2 9 Norte 21 Norte 0 926.7 -1.1 30
2018-08-31 14:00:00 25.9 6 Este 23 Nordeste 0 926.9 -0.8 33
2018-08-31 13:00:00 24.6 9 Este 24 Nordeste 0 927.4 -0.2 34
2018-08-31 12:00:00 22.8 8 Este 27 Nordeste 0 927.8 0.2 41
2018-08-31 11:00:00 20.3 13 Nordeste 30 Nordeste 0 927.7 0.3 46
2018-08-31 10:00:00 17.8 10 Nordeste 23 Nordeste 0 927.6 0.4 57
2018-08-31 09:00:00 13.9 7 Norte 15 Norte 0 927.6 0.5 74
2018-08-31 08:00:00 11.4 5 Norte 14 Nordeste 0 927.4 0.1 84
2018-08-31 07:00:00 11.2 3 Nordeste 11 Este 0 927.2 -0.1 85
2018-08-31 06:00:00 11.6 6 Norte 15 Nordeste 0 927.1 -0.6 86
2018-08-31 05:00:00 12.1 4 Norte 9 Nordeste 0 927.3 -0.5 85
2018-08-31 04:00:00 13 5 Nordeste 19 Norte 0 927.3 -0.3 83
2018-08-31 03:00:00 13.6 8 Nordeste 17 Nordeste 0 927.7 0 82
2018-08-31 02:00:00 14.2 3 Este 19 Nordeste 0 927.8 0.3 80
2018-08-31 01:00:00 14.9 6 Nordeste 16 Nordeste 0 927.6 0.2 81
2018-08-31 00:00:00 15.7 8 Nordeste 22 Nordeste 0 927.7 1 81
2018-08-30 23:00:00 16.5 10 Nordeste 32 Nordeste 0 927.5 1.7 78
2018-08-30 22:00:00 17.5 15 Nordeste 35 Nordeste 0 927.4 1.9 74
2018-08-30 21:00:00 19.9 14 Nordeste 31 Nordeste 0 926.7 1.2 64
2018-08-30 20:00:00 23.5 13 Nordeste 27 Nordeste 0 925.8 0 50
2018-08-30 19:00:00 25.5 3 Noroeste 10 Noroeste 0 925.5 -0.6 42
2018-08-30 18:00:00 27.7 2 Noroeste 14 Sudeste 0 925.5 -1.1 35
2018-08-30 17:00:00 27.9 4 Norte 17 Norte 0 925.8 -1 32
2018-08-30 16:00:00 27.5 6 Norte 16 Norte 0 926.1 -1.2 32
2018-08-30 15:00:00 27.1 4 Nordeste 14 Noroeste 0 926.6 -1.2 36
2018-08-30 14:00:00 25.4 4 Norte 13 Norte 0 926.8 -1.2 42
2018-08-30 13:00:00 24.1 5 Este 15 Nordeste 0 927.3 -0.7 48
2018-08-30 12:00:00 21.7 6 Nordeste 19 Nordeste 0 927.8 -0.2 53
2018-08-30 11:00:00 19.1 6 Nordeste 22 Nordeste 0 928 0.1 62
2018-08-30 10:00:00 17.1 7 Nordeste 21 Nordeste 0 928 0.5 71
2018-08-30 09:00:00 14.2 7 Norte 20 Nordeste 0 928 0.3 87
2018-08-30 08:00:00 12.2 7 Norte 15 Nordeste 0 927.9 0.2 94
2018-08-30 07:00:00 12.3 5 Norte 17 Norte 0 927.5 -0.6 93
2018-08-30 06:00:00 12.6 6 Norte 15 Nordeste 0 927.7 -0.7 92
2018-08-30 05:00:00 12.9 6 Nordeste 18 Nordeste 0 927.7 -1 86
2018-08-30 04:00:00 13.5 10 Nordeste 28 Nordeste 0 928.1 -0.4 85
2018-08-30 03:00:00 14.5 13 Nordeste 28 Nordeste 0 928.4 0 81
2018-08-30 02:00:00 15 10 Nordeste 31 Nordeste 0 928.7 0.4 82
2018-08-30 01:00:00 15.3 15 Nordeste 36 Nordeste 0 928.5 0.7 82
2018-08-30 00:00:00 15.5 13 Nordeste 31 Nordeste 0 928.4 1.5 81
2018-08-29 23:00:00 16 12 Nordeste 30 Nordeste 0 928.3 2.2 79
2018-08-29 22:00:00 17.1 14 Nordeste 31 Nordeste 0 927.8 2.2 73
2018-08-29 21:00:00 19.3 15 Nordeste 31 Nordeste 0 926.9 1.3 64
2018-08-29 20:00:00 22.2 10 Nordeste 28 Norte 0 926.1 0.3 53
2018-08-29 19:00:00 24.8 10 Nordeste 29 Nordeste 0 925.6 -0.3 42
2018-08-29 18:00:00 26.5 9 Este 24 Nordeste 0 925.6 -0.2 37
2018-08-29 17:00:00 26.7 8 Este 33 Nordeste 0 925.8 -0.1 37
2018-08-29 16:00:00 26.3 13 Nordeste 32 Nordeste 0 925.9 -0.2 41
2018-08-29 15:00:00 28.1 7 Sudeste 22 Nordeste 0 925.8 -0.7 33
2018-08-29 14:00:00 26.6 7 Este 23 Nordeste 0 925.9 -0.5 37
2018-08-29 13:00:00 25.4 9 Este 22 Sudeste 0 926.1 -0.2 42
2018-08-29 12:00:00 24.2 8 Este 21 Este 0 926.5 0.5 45
2018-08-29 11:00:00 22 8 Nordeste 21 Nordeste 0 926.4 1 53
2018-08-29 10:00:00 19.2 6 Nordeste 17 Nordeste 0 926.3 1.5 66
2018-08-29 09:00:00 15.8 3 Norte 13 Norte 0 926 1.4 82
2018-08-29 08:00:00 13.6 6 Norte 10 Norte 0 925.4 0.6 93
2018-08-29 07:00:00 13.5 5 Norte 10 Noroeste 0 924.8 0.3 93
2018-08-29 06:00:00 12.7 4 Norte 10 Noroeste 0 924.6 0.2 86
2018-08-29 05:00:00 13.7 5 Norte 13 Nordeste 0 924.8 0.5 83
2018-08-29 04:00:00 13.6 7 Nordeste 15 Nordeste 0 924.5 0.9 85
2018-08-29 03:00:00 13.1 2 Norte 7 Norte 0 924.4 0.9 89
2018-08-29 02:00:00 13.5 3 Norte 5 Noroeste 0 924.3 1.2 91
2018-08-29 01:00:00 14.4 2 Norte 5 Noroeste 0 923.6 1.1 83
2018-08-29 00:00:00 15.7 3 Norte 9 Nordeste 0 923.5 1.7 80
2018-08-28 23:00:00 18.2 5 Nordeste 17 Nordeste 0 923.1 2 68
2018-08-28 22:00:00 17.4 3 Nordeste 7 Nordeste 0 922.5 1.7 76
2018-08-28 21:00:00 19.7 0 Calma 9 Norte 0 921.8 1.6 67
2018-08-28 20:00:00 22.1 3 Noroeste 23 Norte 0 921.1 0.7 55
2018-08-28 19:00:00 24.7 10 Noroeste 38 Noroeste 0 920.8 0 42
2018-08-28 18:00:00 29.1 10 Sudoeste 28 Sudoeste 0 920.2 -1.2 26
2018-08-28 17:00:00 30.4 6 Sudoeste 29 Sudoeste 0 920.4 -1.2 29
2018-08-28 16:00:00 29.1 7 Sudoeste 31 Sur 0 920.8 -1.1 33
2018-08-28 15:00:00 29.4 9 Sudoeste 33 Sudoeste 0 921.4 -0.3 32
2018-08-28 14:00:00 28.9 12 Sudoeste 33 Sudoeste 0 921.6 0.1 31
2018-08-28 13:00:00 28.1 13 Sudoeste 37 Sudoeste 0 921.9 0.2 31
2018-08-28 12:00:00 27.2 15 Sudoeste 40 Sudoeste 0 921.7 -0.1 33
2018-08-28 11:00:00 25.6 15 Sudoeste 31 Sudoeste 0 921.5 0.2 38
2018-08-28 10:00:00 22.4 6 Sur 13 Sur 0 921.7 0.8 49
2018-08-28 09:00:00 18.8 3 Este 10 Sudeste 0 921.8 0.8 65
2018-08-28 08:00:00 17.1 4 Este 13 Este 0 921.3 -0.2 70
2018-08-28 07:00:00 17.9 6 Nordeste 18 Nordeste 0 920.9 -0.6 68
2018-08-28 06:00:00 18.1 5 Nordeste 16 Este 0 921 -1.1 70
2018-08-28 05:00:00 18.3 5 Nordeste 20 Nordeste 0 921.5 -1.2 70
2018-08-28 04:00:00 18.7 7 Nordeste 17 Nordeste 0 921.5 -1.4 70
2018-08-28 03:00:00 18.7 6 Nordeste 15 Nordeste 0 922.1 -0.5 67
2018-08-28 02:00:00 19.3 5 Nordeste 14 Nordeste 0 922.7 0.2 59
2018-08-28 01:00:00 19 6 Norte 14 Nordeste 0 922.9 0.5 55
2018-08-28 00:00:00 17.7 2 Este 6 Este 0 922.6 0.4 69
2018-08-27 23:00:00 19.5 0 Calma 6 Norte 0 922.5 0 65
2018-08-27 22:00:00 20.2 0 Calma 6 Este 0 922.4 -0.3 61
2018-08-27 21:00:00 22.6 0 Calma 5 Noroeste 0 922.2 -0.6 54
2018-08-27 20:00:00 25.7 2 Norte 12 Oeste 0 922.5 0 47
2018-08-27 19:00:00 28.5 3 Sudoeste 17 Sur 0 922.7 -0.2 30
2018-08-27 18:00:00 31.3 5 Oeste 20 Sudoeste 0 922.8 -0.5 24
2018-08-27 17:00:00 31.8 4 Sudoeste 24 Sudoeste 0 922.5 -1.2 21
2018-08-27 16:00:00 31.3 6 Sudoeste 24 Sudoeste 0 922.9 -1 24
2018-08-27 15:00:00 30.9 5 Sudeste 13 Sudeste 0 923.3 -0.7 29
2018-08-27 14:00:00 29.4 4 Oeste 16 Sur 0 923.7 -0.3 31
2018-08-27 13:00:00 28.1 3 Sudoeste 13 Este 0 923.9 -0.1 30
2018-08-27 12:00:00 26.1 5 Este 20 Este 0 924 0.2 35
2018-08-27 11:00:00 23.7 5 Este 16 Sudeste 0 924 0.4 44
2018-08-27 10:00:00 20.2 5 Este 18 Nordeste 0 924 0.8 54
2018-08-27 09:00:00 16.5 6 Nordeste 14 Nordeste 0 923.8 0.6 66
2018-08-27 08:00:00 14 6 Nordeste 16 Nordeste 0 923.6 0.2 76
2018-08-27 07:00:00 14.3 8 Norte 17 Norte 0 923.2 -0.1 76
2018-08-27 06:00:00 13.8 5 Nordeste 16 Nordeste 0 923.2 -0.1 84
2018-08-27 05:00:00 12.7 3 Nordeste 9 Norte 0 923.4 0.1 92
2018-08-27 04:00:00 13.7 3 Norte 8 Nordeste 0 923.3 -0.1 89
2018-08-27 03:00:00 14.7 3 Nordeste 9 Este 0 923.3 0.1 83
2018-08-27 02:00:00 15.8 3 Este 19 Nordeste 0 923.3 0.4 78
2018-08-27 01:00:00 17.3 9 Nordeste 18 Nordeste 0 923.4 0.9 73
2018-08-27 00:00:00 18.2 9 Nordeste 22 Norte 0 923.2 1 68
2018-08-26 23:00:00 16.1 4 Norte 14 Nordeste 0 922.9 1.1 69
2018-08-26 22:00:00 17.7 0 Calma 2 Nordeste 0 922.5 0.7 70
2018-08-26 21:00:00 20.4 0 Calma 6 Sudoeste 0 922.2 0.3 61
2018-08-26 20:00:00 23.7 0 Calma 10 Oeste 0 921.8 -0.3 41
2018-08-26 19:00:00 27.5 4 Sudoeste 17 Sudoeste 0 921.8 -0.7 29
2018-08-26 18:00:00 28 4 Sudoeste 18 Sudoeste 0 921.9 -1.1 28
2018-08-26 17:00:00 28.3 3 Sudoeste 20 Sur 0 922.1 -1.3 29
2018-08-26 16:00:00 27.2 4 Sudoeste 16 Sur 0 922.5 -1.4 30
2018-08-26 15:00:00 26.4 5 Oeste 24 Sudoeste 0 923 -1.4 33
2018-08-26 14:00:00 24.7 4 Oeste 17 Noroeste 0 923.4 -1.2 36
2018-08-26 13:00:00 22.3 6 Norte 15 Noroeste 0 923.9 -0.7 46
2018-08-26 12:00:00 20.7 3 Este 10 Noroeste 0 924.4 0.1 49
2018-08-26 11:00:00 18 4 Nordeste 13 Nordeste 0 924.6 0.4 56
2018-08-26 10:00:00 16 5 Este 15 Este 0 924.6 0.5 64
2018-08-26 09:00:00 12.8 5 Nordeste 12 Nordeste 0 924.3 0.5 77
2018-08-26 08:00:00 10.7 5 Norte 12 Norte 0 924.2 0 85
2018-08-26 07:00:00 10.2 7 Norte 12 Norte 0 924.1 -0.4 86
2018-08-26 06:00:00 10.6 5 Norte 13 Nordeste 0 923.8 -0.8 82
2018-08-26 05:00:00 10.6 2 Nordeste 8 Este 0 924.2 -0.8 81
2018-08-26 04:00:00 11.3 4 Nordeste 20 Nordeste 0 924.5 -0.5 78
2018-08-26 03:00:00 11.6 5 Nordeste 16 Nordeste 0 924.6 -0.5 78
2018-08-26 02:00:00 12.1 5 Nordeste 22 Nordeste 0 925 0 77
2018-08-26 01:00:00 12.6 8 Nordeste 20 Este 0 925 0.5 77
2018-08-26 00:00:00 13.1 8 Nordeste 28 Nordeste 0 925.1 1.1 78
2018-08-25 23:00:00 13.6 7 Nordeste 23 Este 0 925 1.7 74
2018-08-25 22:00:00 14.8 8 Nordeste 25 Nordeste 0 924.5 1.4 68
2018-08-25 21:00:00 16.8 9 Nordeste 33 Nordeste 0 924 0.9 62
2018-08-25 20:00:00 19.8 9 Este 26 Este 0 923.3 -0.2 49
2018-08-25 19:00:00 22.9 9 Este 26 Sudeste 0 923.1 -0.7 37
2018-08-25 18:00:00 24.3 11 Sudeste 26 Sudeste 0 923.1 -1.1 32
2018-08-25 17:00:00 24.5 7 Este 21 Nordeste 0 923.5 -1.2 31
2018-08-25 16:00:00 24.3 8 Nordeste 26 Sudeste 0 923.8 -1.4 31
2018-08-25 15:00:00 23 7 Nordeste 22 Nordeste 0 924.2 -1.5 31
2018-08-25 14:00:00 22.3 7 Nordeste 24 Nordeste 0 924.7 -1.1 34
2018-08-25 13:00:00 21 8 Nordeste 22 Sudeste 0 925.2 -0.5 44
2018-08-25 12:00:00 19.6 10 Este 26 Nordeste 0 925.7 0.1 49
2018-08-25 11:00:00 17.7 10 Nordeste 27 Nordeste 0 925.8 0.3 59
2018-08-25 10:00:00 15.7 6 Nordeste 21 Nordeste 0 925.7 0.3 69
2018-08-25 09:00:00 12.5 5 Nordeste 15 Este 0 925.6 0.2 84
2018-08-25 08:00:00 9.8 4 Nordeste 11 Nordeste 0 925.5 -0.3 94
2018-08-25 07:00:00 9.6 4 Nordeste 14 Norte 0 925.4 -0.5 92
2018-08-25 06:00:00 10 4 Nordeste 9 Nordeste 0 925.4 -0.7 91
2018-08-25 05:00:00 10.7 3 Norte 10 Norte 0 925.8 -0.6 91
2018-08-25 04:00:00 11.5 5 Nordeste 15 Nordeste 0 925.9 -0.7 86
2018-08-25 03:00:00 12 5 Nordeste 11 Nordeste 0 926.1 -0.5 84
2018-08-25 02:00:00 12.7 5 Nordeste 17 Nordeste 0 926.4 -0.2 81
2018-08-25 01:00:00 13.3 5 Nordeste 18 Este 0 926.6 0.2 81
2018-08-25 00:00:00 14 6 Nordeste 26 Nordeste 0 926.6 0.9 81